Alaska, Minnesota
Current Conditions -  °F | °C
As of 3:32 AM on Monday 24 Nov 2014 (Local Time) from KBJI Reporting Station
Light Snow Light Snow  
Wind Chill:   Ceiling: 700
Heat Index: 17°   Visibility: 5mi
Dew Point: 15°   Wind: 16mph
Humidity: 92%   Direction: 300°WNW
Pressure: 29.43"   Gusts: NA
Location:  47.7369°N, 94.9947°W
Report Text: KBJI 240932Z AUTO 30014KT 5SM -SN OVC007 M08/M09 A2943 RMK AO2 T10841095
Loading
Personal Weather Stations






























Interactive Weather Map New forecast layout! Learn more

10-Day Weather Forecast

Advertisements
Track Severe Weather on mobile